Observation data for Guthrie on 07/10/2020      Previous  Date  Next       Current Mesonet Observations  Soil Data  Daily Summary Page  Observations in Plain Language
KPFS 100500Z 15010KT 31/18 A2987 RMK A01 T03090184  RH  050%=      5-min Rain = 0
KPFS 100505Z 15009KT 31/19 A2987 RMK A01 T03070185  RH  051%=      5-min Rain = 0
KPFS 100510Z 15009KT 31/19 A2988 RMK A01 T03050185  RH  051%=      5-min Rain = 0
KPFS 100515Z 14009KT 30/19 A2988 RMK A01 T03030186  RH  052%=      5-min Rain = 0
KPFS 100520Z 15010KT 30/19 A2988 RMK A01 T03020186  RH  052%=      5-min Rain = 0
KPFS 100525Z 15010KT 30/19 A2988 RMK A01 T03030186  RH  052%=      5-min Rain = 0
KPFS 100530Z 15011KT 30/19 A2988 RMK A01 T03030186  RH  052%=      5-min Rain = 0
KPFS 100535Z 15010KT 30/19 A2988 RMK A01 T03020186  RH  053%=      5-min Rain = 0
KPFS 100540Z 15010KT 30/19 A2988 RMK A01 T03010186  RH  053%=      5-min Rain = 0
KPFS 100545Z 16011KT 30/19 A2988 RMK A01 T03000186  RH  053%=      5-min Rain = 0
KPFS 100550Z 16011KT 30/19 A2988 RMK A01 T03000186  RH  053%=      5-min Rain = 0
KPFS 100555Z 15012KT 30/19 A2988 RMK A01 T03000186  RH  053%=      5-min Rain = 0
KPFS 100600Z 16012G17KT 30/19 A2988 RMK A01 T03000186  RH  053%=      5-min Rain = 0
KPFS 100605Z 16011G16KT 30/19 A2988 RMK A01 T02990186  RH  054%=      5-min Rain = 0
KPFS 100610Z 16011KT 30/19 A2988 RMK A01 T02980186  RH  054%=      5-min Rain = 0
KPFS 100615Z 16011KT 30/19 A2988 RMK A01 T02970186  RH  054%=      5-min Rain = 0
KPFS 100620Z 16011KT 30/19 A2989 RMK A01 T02960187  RH  055%=      5-min Rain = 0
KPFS 100625Z 16012KT 30/19 A2988 RMK A01 T02950187  RH  055%=      5-min Rain = 0
KPFS 100630Z 16011KT 30/19 A2988 RMK A01 T02950187  RH  055%=      5-min Rain = 0
KPFS 100635Z 17011KT 29/19 A2988 RMK A01 T02940187  RH  056%=      5-min Rain = 0
KPFS 100640Z 17010KT 29/19 A2988 RMK A01 T02930188  RH  056%=      5-min Rain = 0
KPFS 100645Z 17011KT 29/19 A2988 RMK A01 T02910188  RH  057%=      5-min Rain = 0
KPFS 100650Z 17012KT 29/19 A2988 RMK A01 T02910188  RH  057%=      5-min Rain = 0
KPFS 100655Z 17012KT 29/19 A2988 RMK A01 T02900188  RH  057%=      5-min Rain = 0
KPFS 100700Z 16013KT 29/19 A2988 RMK A01 T02900188  RH  057%=      5-min Rain = 0
KPFS 100705Z 16014KT 29/19 A2988 RMK A01 T02910188  RH  057%=      5-min Rain = 0
KPFS 100710Z 17013KT 29/19 A2988 RMK A01 T02900187  RH  057%=      5-min Rain = 0
KPFS 100715Z 17012G17KT 29/19 A2988 RMK A01 T02900187  RH  057%=      5-min Rain = 0
KPFS 100720Z 17012KT 29/19 A2988 RMK A01 T02900187  RH  057%=      5-min Rain = 0
KPFS 100725Z 17011KT 29/19 A2988 RMK A01 T02880187  RH  057%=      5-min Rain = 0
KPFS 100730Z 17011KT 29/19 A2989 RMK A01 T02870187  RH  058%=      5-min Rain = 0
KPFS 100735Z 17011KT 29/19 A2989 RMK A01 T02860187  RH  058%=      5-min Rain = 0
KPFS 100740Z 17010KT 29/19 A2989 RMK A01 T02850187  RH  058%=      5-min Rain = 0
KPFS 100745Z 17010KT 28/19 A2989 RMK A01 T02840187  RH  059%=      5-min Rain = 0
KPFS 100750Z 18009KT 28/19 A2989 RMK A01 T02830187  RH  059%=      5-min Rain = 0
KPFS 100755Z 17010KT 28/19 A2989 RMK A01 T02820187  RH  060%=      5-min Rain = 0
KPFS 100800Z 17010KT 28/19 A2989 RMK A01 T02810186  RH  060%=      5-min Rain = 0
KPFS 100805Z 17009KT 28/19 A2989 RMK A01 T02800186  RH  060%=      5-min Rain = 0
KPFS 100810Z 17009KT 28/19 A2989 RMK A01 T02790186  RH  060%=      5-min Rain = 0
KPFS 100815Z 17009KT 28/19 A299 RMK A01 T02780186  RH  061%=      5-min Rain = 0
KPFS 100820Z 17009KT 28/19 A299 RMK A01 T02770186  RH  061%=      5-min Rain = 0
KPFS 100825Z 17009KT 28/19 A299 RMK A01 T02760186  RH  061%=      5-min Rain = 0
KPFS 100830Z 17009KT 28/19 A299 RMK A01 T02750186  RH  062%=      5-min Rain = 0
KPFS 100835Z 17009KT 27/19 A299 RMK A01 T02740186  RH  062%=      5-min Rain = 0
KPFS 100840Z 17010KT 27/19 A299 RMK A01 T02740186  RH  062%=      5-min Rain = 0
KPFS 100845Z 16010KT 27/19 A299 RMK A01 T02730186  RH  062%=      5-min Rain = 0
KPFS 100850Z 17009KT 27/19 A299 RMK A01 T02720185  RH  062%=      5-min Rain = 0
KPFS 100855Z 17009KT 27/19 A299 RMK A01 T02720185  RH  062%=      5-min Rain = 0
KPFS 100900Z 16009KT 27/19 A299 RMK A01 T02710185  RH  063%=      5-min Rain = 0
KPFS 100905Z 16010KT 27/19 A2991 RMK A01 T02690185  RH  063%=      5-min Rain = 0
KPFS 100910Z 16009KT 27/19 A2991 RMK A01 T02680185  RH  064%=      5-min Rain = 0
KPFS 100915Z 16009KT 27/19 A2991 RMK A01 T02680185  RH  064%=      5-min Rain = 0
KPFS 100920Z 16009KT 27/18 A2991 RMK A01 T02680184  RH  064%=      5-min Rain = 0
KPFS 100925Z 16010KT 27/18 A2991 RMK A01 T02670184  RH  064%=      5-min Rain = 0
KPFS 100930Z 16009KT 27/18 A2991 RMK A01 T02650184  RH  065%=      5-min Rain = 0
KPFS 100935Z 17008KT 26/18 A2991 RMK A01 T02640184  RH  065%=      5-min Rain = 0
KPFS 100940Z 16009KT 26/18 A2991 RMK A01 T02630184  RH  065%=      5-min Rain = 0
KPFS 100945Z 16010KT 26/18 A299 RMK A01 T02600184  RH  066%=      5-min Rain = 0
KPFS 100950Z 16010KT 26/18 A2991 RMK A01 T02600184  RH  067%=      5-min Rain = 0
KPFS 100955Z 17010KT 26/18 A2991 RMK A01 T02590184  RH  067%=      5-min Rain = 0
KPFS 101000Z 17010KT 26/18 A299 RMK A01 T02610183  RH  066%=      5-min Rain = 0
KPFS 101005Z 17011KT 26/18 A299 RMK A01 T02600183  RH  066%=      5-min Rain = 0
KPFS 101010Z 17010KT 26/18 A299 RMK A01 T02580183  RH  067%=      5-min Rain = 0
KPFS 101015Z 17009KT 26/18 A2991 RMK A01 T02590183  RH  066%=      5-min Rain = 0
KPFS 101020Z 17008KT 26/18 A2991 RMK A01 T02590183  RH  066%=      5-min Rain = 0
KPFS 101025Z 17011KT 26/18 A2991 RMK A01 T02590183  RH  066%=      5-min Rain = 0
KPFS 101030Z 17011KT 26/18 A299 RMK A01 T02580183  RH  067%=      5-min Rain = 0
KPFS 101035Z 17010KT 26/18 A2991 RMK A01 T02590183  RH  066%=      5-min Rain = 0
KPFS 101040Z 17009KT 26/18 A2991 RMK A01 T02600182  RH  066%=      5-min Rain = 0
KPFS 101045Z 16007KT 26/18 A2992 RMK A01 T02600182  RH  065%=      5-min Rain = 0
KPFS 101050Z 15007KT 26/18 A2992 RMK A01 T02590182  RH  066%=      5-min Rain = 0
KPFS 101055Z 13008KT 26/18 A2993 RMK A01 T02560183  RH  067%=      5-min Rain = 0
KPFS 101100Z 12009KT 25/18 A2993 RMK A01 T02520184  RH  069%=      5-min Rain = 0
KPFS 101105Z 11008KT 25/18 A2994 RMK A01 T02500184  RH  070%=      5-min Rain = 0
KPFS 101110Z 11007KT 25/18 A2995 RMK A01 T02510183  RH  070%=      5-min Rain = 0
KPFS 101115Z 13007KT 25/18 A2995 RMK A01 T02510183  RH  070%=      5-min Rain = 0
KPFS 101120Z 13008KT 25/18 A2995 RMK A01 T02500183  RH  070%=      5-min Rain = 0
KPFS 101125Z 12009KT 25/18 A2995 RMK A01 T02500183  RH  070%=      5-min Rain = 0
KPFS 101130Z 12007KT 25/18 A2996 RMK A01 T02490183  RH  070%=      5-min Rain = 0
KPFS 101135Z 14007KT 25/18 A2997 RMK A01 T02480183  RH  071%=      5-min Rain = 0
KPFS 101140Z 15009KT 25/18 A2996 RMK A01 T02450183  RH  072%=      5-min Rain = 0
KPFS 101145Z 15011KT 24/18 A2995 RMK A01 T02420184  RH  074%=      5-min Rain = 0
KPFS 101150Z 15010KT 24/18 A2996 RMK A01 T02410184  RH  074%=      5-min Rain = 0
KPFS 101155Z 15009KT 24/18 A2996 RMK A01 T02430184  RH  073%=      5-min Rain = 0
KPFS 101200Z 16009KT 25/18 A2996 RMK A01 T02460183  RH  072%=      5-min Rain = 0
KPFS 101205Z 16011KT 25/18 A2995 RMK A01 T02470183  RH  071%=      5-min Rain = 0
KPFS 101210Z 16012KT 25/18 A2995 RMK A01 T02470183  RH  071%=      5-min Rain = 0
KPFS 101215Z 16011KT 25/18 A2995 RMK A01 T02470183  RH  072%=      5-min Rain = 0
KPFS 101220Z 16009KT 25/18 A2996 RMK A01 T02470183  RH  071%=      5-min Rain = 0
KPFS 101225Z 14009KT 25/18 A2996 RMK A01 T02500183  RH  070%=      5-min Rain = 0
KPFS 101230Z 14010KT 25/18 A2996 RMK A01 T02510184  RH  070%=      5-min Rain = 0
KPFS 101235Z 15011KT 25/18 A2996 RMK A01 T02520184  RH  069%=      5-min Rain = 0
KPFS 101240Z 16010KT 25/18 A2996 RMK A01 T02520184  RH  070%=      5-min Rain = 0
KPFS 101245Z 16011KT 25/18 A2996 RMK A01 T02520184  RH  070%=      5-min Rain = 0
KPFS 101250Z 15012KT 26/18 A2996 RMK A01 T02550184  RH  068%=      5-min Rain = 0
KPFS 101255Z 16012KT 26/18 A2996 RMK A01 T02570184  RH  067%=      5-min Rain = 0
KPFS 101300Z 16011KT 26/18 A2996 RMK A01 T02580184  RH  067%=      5-min Rain = 0
KPFS 101305Z 16011KT 26/19 A2997 RMK A01 T02580185  RH  068%=      5-min Rain = 0
KPFS 101310Z 16011KT 26/19 A2997 RMK A01 T02590185  RH  067%=      5-min Rain = 0
KPFS 101315Z 17011KT 26/19 A2997 RMK A01 T02640185  RH  065%=      5-min Rain = 0
KPFS 101320Z 17012KT 27/18 A2996 RMK A01 T02680184  RH  063%=      5-min Rain = 0
KPFS 101325Z 17011KT 27/18 A2997 RMK A01 T02710184  RH  062%=      5-min Rain = 0
KPFS 101330Z 17011KT 28/18 A2997 RMK A01 T02770184  RH  060%=      5-min Rain = 0
KPFS 101335Z 18012KT 28/18 A2997 RMK A01 T02800183  RH  059%=      5-min Rain = 0
KPFS 101340Z 17013KT 28/18 A2997 RMK A01 T02810182  RH  058%=      5-min Rain = 0
KPFS 101345Z 17013G18KT 29/18 A2998 RMK A01 T02860182  RH  056%=      5-min Rain = 0
KPFS 101350Z 17013KT 29/18 A2998 RMK A01 T02890182  RH  056%=      5-min Rain = 0
KPFS 101355Z 18010KT 29/18 A2998 RMK A01 T02900183  RH  055%=      5-min Rain = 0
KPFS 101400Z 18011KT 29/18 A2998 RMK A01 T02930183  RH  054%=      5-min Rain = 0
KPFS 101405Z 18011G17KT 30/18 A2999 RMK A01 T02950183  RH  054%=      5-min Rain = 0
KPFS 101410Z 19012G17KT 30/18 A2999 RMK A01 T02960180  RH  052%=      5-min Rain = 0
KPFS 101415Z 18011KT 30/18 A30 RMK A01 T02980181  RH  052%=      5-min Rain = 0
KPFS 101420Z 18011G16KT 30/18 A30 RMK A01 T02990182  RH  052%=      5-min Rain = 0
KPFS 101425Z 19011KT 30/18 A30 RMK A01 T03010183  RH  052%=      5-min Rain = 0
KPFS 101430Z 19012G17KT 30/18 A2999 RMK A01 T03020184  RH  052%=      5-min Rain = 0
KPFS 101435Z 19013KT 30/18 A2999 RMK A01 T03030183  RH  051%=      5-min Rain = 0
KPFS 101440Z 18011G17KT 31/18 A30 RMK A01 T03050184  RH  051%=      5-min Rain = 0
KPFS 101445Z 19013G19KT 31/18 A30 RMK A01 T03060183  RH  050%=      5-min Rain = 0
KPFS 101450Z 20012G18KT 31/18 A30 RMK A01 T03060183  RH  050%=      5-min Rain = 0
KPFS 101455Z 19013KT 31/18 A30 RMK A01 T03080184  RH  050%=      5-min Rain = 0
KPFS 101500Z 19010KT 31/19 A30 RMK A01 T03110186  RH  050%=      5-min Rain = 0
KPFS 101505Z 19012G17KT 31/19 A30 RMK A01 T03110186  RH  050%=      5-min Rain = 0
KPFS 101510Z 20010KT 31/19 A30 RMK A01 T03140188  RH  050%=      5-min Rain = 0
KPFS 101515Z 19011G16KT 31/19 A30 RMK A01 T03120186  RH  050%=      5-min Rain = 0
KPFS 101520Z 21010G15KT 31/19 A30 RMK A01 T03130187  RH  050%=      5-min Rain = 0
KPFS 101525Z 20009KT 32/19 A30 RMK A01 T03170188  RH  049%=      5-min Rain = 0
KPFS 101530Z 20009G15KT 32/19 A3001 RMK A01 T03190190  RH  049%=      5-min Rain = 0
KPFS 101535Z 19009G14KT 32/19 A3001 RMK A01 T03210189  RH  048%=      5-min Rain = 0
KPFS 101540Z 19009KT 32/19 A30 RMK A01 T03230191  RH  048%=      5-min Rain = 0
KPFS 101545Z 19009G14KT 33/19 A3001 RMK A01 T03250191  RH  048%=      5-min Rain = 0
KPFS 101550Z 18009G14KT 33/19 A3001 RMK A01 T03260192  RH  048%=      5-min Rain = 0
KPFS 101555Z 17008KT 32/19 A3002 RMK A01 T03230190  RH  048%=      5-min Rain = 0
KPFS 101600Z 18010G15KT 33/19 A3001 RMK A01 T03250192  RH  048%=      5-min Rain = 0
KPFS 101605Z 18009G15KT 33/19 A3001 RMK A01 T03270192  RH  047%=      5-min Rain = 0
KPFS 101610Z 18008KT 33/19 A3001 RMK A01 T03270191  RH  047%=      5-min Rain = 0
KPFS 101615Z 18008KT 33/19 A3002 RMK A01 T03300194  RH  047%=      5-min Rain = 0
KPFS 101620Z 16008KT 33/19 A3002 RMK A01 T03330194  RH  046%=      5-min Rain = 0
KPFS 101625Z 18008G14KT 33/19 A3002 RMK A01 T03320193  RH  046%=      5-min Rain = 0
KPFS 101630Z 19009KT 33/19 A3001 RMK A01 T03340193  RH  046%=      5-min Rain = 0
KPFS 101635Z 18008KT 33/19 A3001 RMK A01 T03340192  RH  046%=      5-min Rain = 0
KPFS 101640Z 17007KT 34/19 A3001 RMK A01 T03370193  RH  045%=      5-min Rain = 0
KPFS 101645Z 16006KT 34/20 A3001 RMK A01 T03400196  RH  045%=      5-min Rain = 0
KPFS 101650Z 18007KT 34/19 A3002 RMK A01 T03430194  RH  044%=      5-min Rain = 0
KPFS 101655Z 19007KT 34/19 A3002 RMK A01 T03410191  RH  044%=      5-min Rain = 0
KPFS 101700Z 18007KT 35/19 A3002 RMK A01 T03450193  RH  043%=      5-min Rain = 0
KPFS 101705Z 17008KT 35/19 A3002 RMK A01 T03460193  RH  043%=      5-min Rain = 0
KPFS 101710Z 17006KT 35/19 A3002 RMK A01 T03470191  RH  042%=      5-min Rain = 0
KPFS 101715Z 16006KT 35/19 A3002 RMK A01 T03480194  RH  043%=      5-min Rain = 0
KPFS 101720Z 15006KT 35/20 A3002 RMK A01 T03540196  RH  042%=      5-min Rain = 0
KPFS 101725Z 16008G13KT 35/19 A3002 RMK A01 T03540192  RH  041%=      5-min Rain = 0
KPFS 101730Z 17007G12KT 35/19 A3002 RMK A01 T03530189  RH  040%=      5-min Rain = 0
KPFS 101735Z 16008G13KT 35/19 A3002 RMK A01 T03520188  RH  040%=      5-min Rain = 0
KPFS 101740Z 15009KT 35/19 A3002 RMK A01 T03530188  RH  040%=      5-min Rain = 0
KPFS 101745Z 14008G13KT 36/19 A3002 RMK A01 T03550189  RH  040%=      5-min Rain = 0
KPFS 101750Z 15008KT 36/19 A3003 RMK A01 T03560187  RH  039%=      5-min Rain = 0
KPFS 101755Z 15007G13KT 36/19 A3003 RMK A01 T03590189  RH  039%=      5-min Rain = 0
KPFS 101800Z 15008G15KT 36/19 A3003 RMK A01 T03610186  RH  038%=      5-min Rain = 0
KPFS 101805Z 15008G13KT 36/19 A3002 RMK A01 T03620190  RH  039%=      5-min Rain = 0
KPFS 101810Z 14011G19KT 36/18 A3002 RMK A01 T03610183  RH  037%=      5-min Rain = 0
KPFS 101815Z 15008G13KT 36/18 A3002 RMK A01 T03620182  RH  037%=      5-min Rain = 0
KPFS 101820Z 17010G15KT 36/19 A3002 RMK A01 T03640187  RH  037%=      5-min Rain = 0
KPFS 101825Z 15011G17KT 37/18 A3001 RMK A01 T03650182  RH  036%=      5-min Rain = 0
KPFS 101830Z 13010G18KT 36/17 A3001 RMK A01 T03640172  RH  034%=      5-min Rain = 0
KPFS 101835Z 16010G15KT 37/18 A3001 RMK A01 T03660180  RH  035%=      5-min Rain = 0
KPFS 101840Z 13012G17KT 37/18 A30 RMK A01 T03660179  RH  035%=      5-min Rain = 0
KPFS 101845Z 13011G17KT 37/18 A30 RMK A01 T03680179  RH  035%=      5-min Rain = 0
KPFS 101850Z 15013G19KT 37/18 A30 RMK A01 T03680177  RH  034%=      5-min Rain = 0
KPFS 101855Z 15011G17KT 37/18 A30 RMK A01 T03680177  RH  034%=      5-min Rain = 0
KPFS 101900Z 13010G15KT 37/17 A3001 RMK A01 T03690173  RH  033%=      5-min Rain = 0
KPFS 101905Z 14008G18KT 37/17 A3001 RMK A01 T03690174  RH  034%=      5-min Rain = 0
KPFS 101910Z 14011G18KT 37/17 A3001 RMK A01 T03690174  RH  034%=      5-min Rain = 0
KPFS 101915Z 16009G14KT 37/17 A3001 RMK A01 T03690170  RH  033%=      5-min Rain = 0
KPFS 101920Z 14010KT 37/17 A3001 RMK A01 T03680169  RH  032%=      5-min Rain = 0
KPFS 101925Z 16009G14KT 37/17 A3001 RMK A01 T03740172  RH  032%=      5-min Rain = 0
KPFS 101930Z 15008G13KT 37/17 A3002 RMK A01 T03700169  RH  032%=      5-min Rain = 0
KPFS 101935Z 15009KT 37/17 A3002 RMK A01 T03730168  RH  031%=      5-min Rain = 0
KPFS 101940Z 14006G11KT 37/17 A3002 RMK A01 T03720167  RH  032%=      5-min Rain = 0
KPFS 101945Z 12008G13KT 37/17 A3002 RMK A01 T03670165  RH  032%=      5-min Rain = 0
KPFS 101950Z 13008G14KT 38/17 A3002 RMK A01 T03770173  RH  032%=      5-min Rain = 0
KPFS 101955Z 15008G13KT 38/17 A3002 RMK A01 T03760174  RH  032%=      5-min Rain = 0
KPFS 102000Z 14007G12KT 38/17 A3002 RMK A01 T03760172  RH  032%=      5-min Rain = 0
KPFS 102005Z 12007KT 38/18 A3001 RMK A01 T03790176  RH  032%=      5-min Rain = 0
KPFS 102010Z 13009G16KT 38/18 A3001 RMK A01 T03780178  RH  033%=      5-min Rain = 0
KPFS 102015Z 12011G17KT 37/18 A3001 RMK A01 T03690178  RH  034%=      5-min Rain = 0
KPFS 102020Z 13012G20KT 37/18 A30 RMK A01 T03740177  RH  033%=      5-min Rain = 0
KPFS 102025Z 13013G23KT 37/18 A30 RMK A01 T03690176  RH  034%=      5-min Rain = 0
KPFS 102030Z 13017G23KT 37/17 A2999 RMK A01 T03650172  RH  034%=      5-min Rain = 0
KPFS 102035Z 14014G20KT 36/17 A2999 RMK A01 T03640174  RH  035%=      5-min Rain = 0
KPFS 102040Z 12013G18KT 36/17 A2999 RMK A01 T03630172  RH  034%=      5-min Rain = 0
KPFS 102045Z 13009G15KT 37/17 A30 RMK A01 T03650171  RH  033%=      5-min Rain = 0
KPFS 102050Z 11014G21KT 37/18 A30 RMK A01 T03660175  RH  034%=      5-min Rain = 0
KPFS 102055Z 12012G17KT 37/18 A30 RMK A01 T03710179  RH  034%=      5-min Rain = 0
KPFS 102100Z 13011G17KT 38/18 A30 RMK A01 T03760183  RH  034%=      5-min Rain = 0
KPFS 102105Z 13014G21KT 38/18 A2999 RMK A01 T03770182  RH  034%=      5-min Rain = 0
KPFS 102110Z 13016G23KT 37/18 A2999 RMK A01 T03730178  RH  034%=      5-min Rain = 0
KPFS 102115Z 14014G22KT 38/18 A2999 RMK A01 T03750179  RH  033%=      5-min Rain = 0
KPFS 102120Z 14015G21KT 37/18 A2999 RMK A01 T03740178  RH  033%=      5-min Rain = 0
KPFS 102125Z 13013G19KT 37/18 A2999 RMK A01 T03740179  RH  034%=      5-min Rain = 0
KPFS 102130Z 12013KT 38/18 A2999 RMK A01 T03750182  RH  034%=      5-min Rain = 0
KPFS 102135Z 14016G23KT 37/18 A2999 RMK A01 T03740180  RH  034%=      5-min Rain = 0
KPFS 102140Z 13015G23KT 37/18 A2999 RMK A01 T03730180  RH  034%=      5-min Rain = 0
KPFS 102145Z 13014G23KT 37/18 A2999 RMK A01 T03710178  RH  034%=      5-min Rain = 0
KPFS 102150Z 13014G21KT 37/18 A2999 RMK A01 T03730180  RH  034%=      5-min Rain = 0
KPFS 102155Z 13014G21KT 37/18 A2999 RMK A01 T03730178  RH  034%=      5-min Rain = 0
KPFS 102200Z 15016G22KT 37/18 A2999 RMK A01 T03710175  RH  033%=      5-min Rain = 0
KPFS 102205Z 15013G21KT 37/18 A2999 RMK A01 T03730177  RH  033%=      5-min Rain = 0
KPFS 102210Z 13015G23KT 37/17 A2999 RMK A01 T03730174  RH  033%=      5-min Rain = 0
KPFS 102215Z 14014G21KT 37/17 A2999 RMK A01 T03720170  RH  032%=      5-min Rain = 0
KPFS 102220Z 15012G18KT 38/17 A2999 RMK A01 T03750173  RH  032%=      5-min Rain = 0
KPFS 102225Z 14013G19KT 37/17 A2998 RMK A01 T03740172  RH  032%=      5-min Rain = 0
KPFS 102230Z 15016G23KT 37/17 A2998 RMK A01 T03740168  RH  031%=      5-min Rain = 0
KPFS 102235Z 15014G19KT 37/17 A2998 RMK A01 T03730171  RH  032%=      5-min Rain = 0
KPFS 102240Z 16013KT 37/17 A2998 RMK A01 T03740173  RH  032%=      5-min Rain = 0
KPFS 102245Z 16014G20KT 38/17 A2998 RMK A01 T03750171  RH  032%=      5-min Rain = 0
KPFS 102250Z 16013G18KT 37/17 A2998 RMK A01 T03730171  RH  032%=      5-min Rain = 0
KPFS 102255Z 15015G23KT 37/18 A2998 RMK A01 T03710175  RH  033%=      5-min Rain = 0
KPFS 102300Z 14014G20KT 37/18 A2997 RMK A01 T03710177  RH  034%=      5-min Rain = 0
KPFS 102305Z 13015G24KT 37/18 A2997 RMK A01 T03700178  RH  034%=      5-min Rain = 0
KPFS 102310Z 15015G21KT 37/18 A2997 RMK A01 T03730179  RH  034%=      5-min Rain = 0
KPFS 102315Z 15015G22KT 37/18 A2997 RMK A01 T03700178  RH  034%=      5-min Rain = 0
KPFS 102320Z 15016G22KT 37/17 A2997 RMK A01 T03680174  RH  034%=      5-min Rain = 0
KPFS 102325Z 14017G25KT 37/18 A2996 RMK A01 T03670177  RH  035%=      5-min Rain = 0
KPFS 102330Z 15016G22KT 37/18 A2996 RMK A01 T03670177  RH  034%=      5-min Rain = 0
KPFS 102335Z 15016G21KT 37/18 A2996 RMK A01 T03660177  RH  035%=      5-min Rain = 0
KPFS 102340Z 14015G21KT 36/18 A2996 RMK A01 T03640176  RH  035%=      5-min Rain = 0
KPFS 102345Z 15015G21KT 37/18 A2996 RMK A01 T03660178  RH  035%=      5-min Rain = 0
KPFS 102350Z 15015G20KT 36/18 A2996 RMK A01 T03640178  RH  035%=      5-min Rain = 0
KPFS 102355Z 15017G23KT 36/18 A2995 RMK A01 T03630176  RH  035%=      5-min Rain = 0
KPFS 110000Z 15014G22KT 36/18 A2995 RMK A01 T03630177  RH  035%=      5-min Rain = 0
KPFS 110005Z 15015G21KT 36/18 A2995 RMK A01 T03630176  RH  035%=      5-min Rain = 0
KPFS 110010Z 14014G20KT 36/18 A2995 RMK A01 T03620176  RH  035%=      5-min Rain = 0
KPFS 110015Z 14019KT 36/18 A2995 RMK A01 T03610175  RH  035%=      5-min Rain = 0
KPFS 110020Z 15017G23KT 36/18 A2995 RMK A01 T03600176  RH  036%=      5-min Rain = 0
KPFS 110025Z 15015G21KT 36/18 A2995 RMK A01 T03590176  RH  036%=      5-min Rain = 0
KPFS 110030Z 15014G22KT 36/18 A2995 RMK A01 T03590176  RH  036%=      5-min Rain = 0
KPFS 110035Z 15015KT 36/18 A2996 RMK A01 T03580176  RH  036%=      5-min Rain = 0
KPFS 110040Z 15014G20KT 36/18 A2996 RMK A01 T03580178  RH  036%=      5-min Rain = 0
KPFS 110045Z 15014G21KT 36/18 A2996 RMK A01 T03560177  RH  037%=      5-min Rain = 0
KPFS 110050Z 14016G23KT 36/17 A2996 RMK A01 T03550174  RH  036%=      5-min Rain = 0
KPFS 110055Z 15015G20KT 36/17 A2996 RMK A01 T03550172  RH  036%=      5-min Rain = 0
KPFS 110100Z 16016G21KT 35/17 A2995 RMK A01 T03540173  RH  036%=      5-min Rain = 0
KPFS 110105Z 15015G20KT 35/17 A2995 RMK A01 T03520174  RH  037%=      5-min Rain = 0
KPFS 110110Z 15015G21KT 35/18 A2995 RMK A01 T03510175  RH  037%=      5-min Rain = 0
KPFS 110115Z 15014G21KT 35/17 A2995 RMK A01 T03500174  RH  037%=      5-min Rain = 0
KPFS 110120Z 15012G17KT 35/18 A2995 RMK A01 T03480175  RH  038%=      5-min Rain = 0
KPFS 110125Z 15014G20KT 35/17 A2995 RMK A01 T03480174  RH  038%=      5-min Rain = 0
KPFS 110130Z 15013G21KT 35/17 A2995 RMK A01 T03460174  RH  038%=      5-min Rain = 0
KPFS 110135Z 15012KT 35/17 A2995 RMK A01 T03450173  RH  038%=      5-min Rain = 0
KPFS 110140Z 15012KT 34/17 A2996 RMK A01 T03420174  RH  039%=      5-min Rain = 0
KPFS 110145Z 15011G16KT 34/17 A2996 RMK A01 T03400174  RH  039%=      5-min Rain = 0
KPFS 110150Z 15012KT 34/17 A2996 RMK A01 T03400173  RH  039%=      5-min Rain = 0
KPFS 110155Z 15011KT 34/17 A2996 RMK A01 T03390173  RH  039%=      5-min Rain = 0
KPFS 110200Z 15010KT 34/17 A2996 RMK A01 T03370174  RH  040%=      5-min Rain = 0
KPFS 110205Z 15011KT 33/17 A2996 RMK A01 T03340174  RH  040%=      5-min Rain = 0
KPFS 110210Z 14011G16KT 33/17 A2996 RMK A01 T03340174  RH  041%=      5-min Rain = 0
KPFS 110215Z 15011KT 33/17 A2996 RMK A01 T03330174  RH  041%=      5-min Rain = 0
KPFS 110220Z 15011KT 33/17 A2996 RMK A01 T03310174  RH  041%=      5-min Rain = 0
KPFS 110225Z 15011KT 33/17 A2996 RMK A01 T03310174  RH  041%=      5-min Rain = 0
KPFS 110230Z 15009G14KT 33/17 A2996 RMK A01 T03290174  RH  042%=      5-min Rain = 0
KPFS 110235Z 15010KT 33/17 A2996 RMK A01 T03280174  RH  042%=      5-min Rain = 0
KPFS 110240Z 15010KT 33/17 A2996 RMK A01 T03270174  RH  042%=      5-min Rain = 0
KPFS 110245Z 15009KT 32/18 A2996 RMK A01 T03240175  RH  043%=      5-min Rain = 0
KPFS 110250Z 15009KT 32/18 A2996 RMK A01 T03230176  RH  044%=      5-min Rain = 0
KPFS 110255Z 14009KT 32/18 A2996 RMK A01 T03220176  RH  044%=      5-min Rain = 0
KPFS 110300Z 15009KT 32/18 A2996 RMK A01 T03210176  RH  044%=      5-min Rain = 0
KPFS 110305Z 15009KT 32/18 A2997 RMK A01 T03210177  RH  045%=      5-min Rain = 0
KPFS 110310Z 15008KT 32/18 A2997 RMK A01 T03190177  RH  045%=      5-min Rain = 0
KPFS 110315Z 14008KT 32/18 A2997 RMK A01 T03170178  RH  046%=      5-min Rain = 0
KPFS 110320Z 14008KT 32/18 A2997 RMK A01 T03150178  RH  046%=      5-min Rain = 0
KPFS 110325Z 14008KT 31/18 A2997 RMK A01 T03130179  RH  047%=      5-min Rain = 0
KPFS 110330Z 14009KT 31/18 A2998 RMK A01 T03120178  RH  047%=      5-min Rain = 0
KPFS 110335Z 14008KT 31/18 A2997 RMK A01 T03110179  RH  048%=      5-min Rain = 0
KPFS 110340Z 15008KT 31/18 A2997 RMK A01 T03090179  RH  048%=      5-min Rain = 0
KPFS 110345Z 15009KT 31/18 A2997 RMK A01 T03070179  RH  049%=      5-min Rain = 0
KPFS 110350Z 15009KT 31/18 A2997 RMK A01 T03070179  RH  049%=      5-min Rain = 0
KPFS 110355Z 15009KT 31/18 A2997 RMK A01 T03060179  RH  049%=      5-min Rain = 0
KPFS 110400Z 15009KT 31/18 A2998 RMK A01 T03060180  RH  049%=      5-min Rain = 0
KPFS 110405Z 15010KT 31/18 A2998 RMK A01 T03060180  RH  050%=      5-min Rain = 0
KPFS 110410Z 16009KT 31/18 A2997 RMK A01 T03050180  RH  050%=      5-min Rain = 0
KPFS 110415Z 16009KT 30/18 A2997 RMK A01 T03040181  RH  050%=      5-min Rain = 0
KPFS 110420Z 16009KT 30/18 A2997 RMK A01 T03030181  RH  051%=      5-min Rain = 0
KPFS 110425Z 16009KT 30/18 A2997 RMK A01 T03030181  RH  051%=      5-min Rain = 0
KPFS 110430Z 16009KT 30/18 A2998 RMK A01 T03020181  RH  051%=      5-min Rain = 0
KPFS 110435Z 16009KT 30/18 A2998 RMK A01 T03020181  RH  051%=      5-min Rain = 0
KPFS 110440Z 16009KT 30/18 A2998 RMK A01 T03010181  RH  051%=      5-min Rain = 0
KPFS 110445Z 15008KT 30/18 A2998 RMK A01 T02990182  RH  052%=      5-min Rain = 0
KPFS 110450Z 15008KT 30/18 A2998 RMK A01 T02950183  RH  054%=      5-min Rain = 0
KPFS 110455Z 14009KT 29/18 A2998 RMK A01 T02930183  RH  055%=      5-min Rain = 0

Page generated in 0.0155 seconds.